Time;durP1;ratioP1;P1;durP2;ratioP2;P2;SDS_P1;SDS_P2;PMS_P1;PMS_P2;Temp;Humidity;BMP_temperature;BMP_pressure;BME280_temperature;BME280_humidity;BME280_pressure;Samples;Min_cycle;Max_cycle;Signal;HPM_P1;HPM_P2
2021/06/14 00:00:35;;;;;;;;;;;20.10;59.60;;;;;;4345606;33;43381;-79
2021/06/14 00:03:03;;;;;;;;;;;20.10;59.50;;;;;;4347006;33;20470;-79
2021/06/14 00:05:43;;;;;;;;;;;20.00;59.60;;;;;;4344646;33;45168;-78
2021/06/14 00:08:13;;;;;;;;;;;20.00;59.60;;;;;;4345951;33;44150;-78
2021/06/14 00:10:41;;;;;;;;;;;20.00;59.70;;;;;;4345085;33;40441;-78
2021/06/14 00:13:08;;;;;;;;;;;20.00;59.80;;;;;;4344380;33;43839;-78
2021/06/14 00:15:36;;;;;;;;;;;20.00;59.80;;;;;;4332289;33;44443;-78
2021/06/14 00:18:04;;;;;;;;;;;20.00;59.90;;;;;;4344488;33;43827;-78
2021/06/14 00:20:32;;;;;;;;;;;19.90;59.90;;;;;;4345003;33;41475;-78
2021/06/14 00:23:00;;;;;;;;;;;19.90;59.90;;;;;;4344829;33;44282;-78
2021/06/14 00:25:30;;;;;;;;;;;19.90;60.00;;;;;;4344370;33;41140;-79
2021/06/14 00:28:01;;;;;;;;;;;19.90;60.00;;;;;;4345789;33;35497;-79
2021/06/14 00:30:29;;;;;;;;;;;19.90;60.00;;;;;;4344629;33;42604;-79
2021/06/14 00:32:58;;;;;;;;;;;19.80;60.00;;;;;;4346757;33;20011;-78
2021/06/14 00:35:28;;;;;;;;;;;19.80;60.00;;;;;;4346850;33;20021;-78
2021/06/14 00:37:58;;;;;;;;;;;19.80;60.20;;;;;;4346520;32;20425;-78
2021/06/14 00:40:29;;;;;;;;;;;19.80;60.20;;;;;;4345656;33;45079;-78
2021/06/14 00:42:59;;;;;;;;;;;19.70;60.20;;;;;;4345826;33;44581;-78
2021/06/14 00:45:31;;;;;;;;;;;19.70;60.20;;;;;;4344770;33;28110;-78
2021/06/14 00:48:02;;;;;;;;;;;19.70;60.20;;;;;;4344691;33;40278;-78
2021/06/14 00:50:41;;;;;;;;;;;19.70;60.30;;;;;;4345859;33;45113;-78
2021/06/14 00:53:09;;;;;;;;;;;19.70;60.40;;;;;;4345180;33;20417;-78
2021/06/14 00:55:37;;;;;;;;;;;19.70;60.50;;;;;;4346800;33;20009;-78
2021/06/14 00:58:10;;;;;;;;;;;19.70;60.60;;;;;;4345739;33;20064;-78
2021/06/14 01:00:38;;;;;;;;;;;19.70;60.80;;;;;;4346796;32;20001;-79
2021/06/14 01:03:07;;;;;;;;;;;19.70;60.80;;;;;;4344359;33;21656;-78
2021/06/14 01:05:58;;;;;;;;;;;19.70;60.80;;;;;;4346065;33;21673;-78
2021/06/14 01:08:33;;;;;;;;;;;19.70;60.80;;;;;;4345627;33;20027;-78
2021/06/14 01:11:10;;;;;;;;;;;19.70;60.80;;;;;;4345633;33;38082;-78
2021/06/14 01:13:40;;;;;;;;;;;19.60;60.70;;;;;;4344594;33;37988;-78
2021/06/14 01:16:13;;;;;;;;;;;19.60;60.80;;;;;;4344320;33;43070;-78
2021/06/14 01:18:52;;;;;;;;;;;19.60;60.90;;;;;;4345692;33;43775;-78
2021/06/14 01:21:29;;;;;;;;;;;19.60;60.90;;;;;;4345316;33;42365;-78
2021/06/14 01:24:04;;;;;;;;;;;19.60;60.90;;;;;;4346718;33;20015;-78
2021/06/14 01:26:58;;;;;;;;;;;19.50;61.70;;;;;;4346552;33;20120;-78
2021/06/14 01:29:25;;;;;;;;;;;19.50;61.00;;;;;;4333563;33;24797;-79
2021/06/14 01:31:58;;;;;;;;;;;19.50;62.00;;;;;;4345137;33;19994;-78
2021/06/14 01:34:28;;;;;;;;;;;19.50;61.10;;;;;;4345243;33;20021;-78
2021/06/14 01:37:00;;;;;;;;;;;19.50;61.10;;;;;;4345184;33;43687;-78
2021/06/14 01:39:28;;;;;;;;;;;19.50;61.20;;;;;;4343771;33;44921;-78
2021/06/14 01:42:01;;;;;;;;;;;19.50;61.40;;;;;;4345677;33;20432;-78
2021/06/14 01:44:29;;;;;;;;;;;19.50;61.50;;;;;;4344136;33;30684;-78
2021/06/14 01:46:57;;;;;;;;;;;19.40;61.40;;;;;;4345090;33;40364;-78
2021/06/14 01:49:27;;;;;;;;;;;19.40;61.60;;;;;;4344640;33;43739;-78
2021/06/14 01:51:54;;;;;;;;;;;19.40;61.50;;;;;;4343582;33;43521;-78
2021/06/14 01:54:24;;;;;;;;;;;19.40;61.50;;;;;;4344983;33;35950;-78
2021/06/14 01:56:52;;;;;;;;;;;19.40;61.50;;;;;;4344584;33;43509;-78
2021/06/14 01:59:29;;;;;;;;;;;19.40;61.50;;;;;;4344989;33;43277;-78
2021/06/14 02:02:02;;;;;;;;;;;19.40;61.60;;;;;;4344641;33;20009;-77
2021/06/14 02:04:35;;;;;;;;;;;19.40;61.60;;;;;;4345841;33;20111;-77
2021/06/14 02:07:06;;;;;;;;;;;19.30;61.50;;;;;;4346052;33;20429;-77
2021/06/14 02:09:35;;;;;;;;;;;19.30;61.60;;;;;;4331598;33;45175;-78
2021/06/14 02:12:04;;;;;;;;;;;19.30;61.80;;;;;;4343783;33;44494;-77
2021/06/14 02:14:33;;;;;;;;;;;19.30;62.00;;;;;;4343822;33;43768;-77
2021/06/14 02:17:04;;;;;;;;;;;19.30;62.10;;;;;;4346312;33;20477;-77
2021/06/14 02:19:32;;;;;;;;;;;19.30;62.10;;;;;;4345983;33;20023;-77
2021/06/14 02:22:02;;;;;;;;;;;19.30;62.10;;;;;;4348669;33;20015;-77
2021/06/14 02:24:31;;;;;;;;;;;19.30;62.10;;;;;;4333739;33;43830;-77
2021/06/14 02:26:58;;;;;;;;;;;19.30;62.20;;;;;;4345824;33;43484;-77
2021/06/14 02:29:29;;;;;;;;;;;19.30;62.30;;;;;;4347399;33;30647;-77
2021/06/14 02:31:59;;;;;;;;;;;19.30;62.20;;;;;;4347387;32;44084;-78
2021/06/14 02:34:26;;;;;;;;;;;19.20;62.30;;;;;;4347248;33;34149;-78
2021/06/14 02:36:54;;;;;;;;;;;19.20;62.20;;;;;;4346608;33;20020;-78
2021/06/14 02:39:27;;;;;;;;;;;19.20;62.20;;;;;;4346817;33;43323;-78
2021/06/14 02:41:54;;;;;;;;;;;19.20;62.10;;;;;;4346644;33;24334;-78
2021/06/14 02:44:25;;;;;;;;;;;19.20;62.10;;;;;;4347475;33;20017;-77
2021/06/14 02:47:00;;;;;;;;;;;19.20;62.60;;;;;;4345975;33;46979;-78
2021/06/14 02:49:30;;;;;;;;;;;19.20;62.20;;;;;;4347680;33;32764;-78
2021/06/14 02:51:58;;;;;;;;;;;19.20;62.20;;;;;;4347341;32;40536;-78
2021/06/14 02:54:46;;;;;;;;;;;19.20;62.20;;;;;;4347488;33;20016;-78
2021/06/14 02:57:13;;;;;;;;;;;19.10;62.20;;;;;;4341488;33;44248;-78
2021/06/14 02:59:46;;;;;;;;;;;19.10;62.20;;;;;;4345942;33;43523;-78
2021/06/14 03:02:18;;;;;;;;;;;19.10;62.30;;;;;;4347536;32;20005;-78
2021/06/14 03:04:45;;;;;;;;;;;19.10;62.30;;;;;;4333768;33;41759;-78
2021/06/14 03:07:12;;;;;;;;;;;19.10;62.30;;;;;;4333196;33;42103;-78
2021/06/14 03:09:42;;;;;;;;;;;19.10;62.30;;;;;;4346677;32;44431;-78
2021/06/14 03:12:12;;;;;;;;;;;19.00;62.20;;;;;;4345664;33;31355;-78
2021/06/14 03:14:43;;;;;;;;;;;19.00;62.30;;;;;;4347005;33;40400;-78
2021/06/14 03:17:16;;;;;;;;;;;19.00;62.30;;;;;;4346755;33;20084;-78
2021/06/14 03:19:46;;;;;;;;;;;19.00;62.30;;;;;;4345991;33;28954;-78
2021/06/14 03:22:21;;;;;;;;;;;19.00;62.20;;;;;;4346742;33;43971;-78
2021/06/14 03:24:53;;;;;;;;;;;19.00;62.30;;;;;;4346758;33;44978;-78
2021/06/14 03:27:24;;;;;;;;;;;19.00;62.30;;;;;;4345563;33;40584;-78
2021/06/14 03:29:54;;;;;;;;;;;19.00;62.30;;;;;;4347610;32;20090;-78
2021/06/14 03:32:21;;;;;;;;;;;19.00;62.40;;;;;;4346629;33;20061;-78
2021/06/14 03:34:49;;;;;;;;;;;18.90;62.30;;;;;;4345443;33;35701;-78
2021/06/14 03:37:17;;;;;;;;;;;18.90;62.30;;;;;;4346813;33;41285;-78
2021/06/14 03:39:49;;;;;;;;;;;18.90;62.30;;;;;;4346894;33;27295;-78
2021/06/14 03:42:22;;;;;;;;;;;18.90;62.30;;;;;;4346780;33;32784;-78
2021/06/14 03:44:51;;;;;;;;;;;18.90;62.40;;;;;;4346838;33;20009;-78
2021/06/14 03:47:18;;;;;;;;;;;18.90;62.40;;;;;;4346301;33;44977;-78
2021/06/14 03:49:46;;;;;;;;;;;18.90;62.50;;;;;;4347368;32;20010;-78
2021/06/14 03:52:13;;;;;;;;;;;18.90;62.50;;;;;;4347445;33;20001;-78
2021/06/14 03:54:42;;;;;;;;;;;18.80;62.40;;;;;;4345157;33;43018;-78
2021/06/14 03:57:13;;;;;;;;;;;18.90;62.50;;;;;;4345964;33;20457;-78
2021/06/14 03:59:43;;;;;;;;;;;18.80;62.50;;;;;;4346994;33;21376;-78
2021/06/14 04:02:10;;;;;;;;;;;18.80;62.60;;;;;;4346109;32;36693;-78
2021/06/14 04:07:13;;;;;;;;;;;18.80;62.60;;;;;;4347284;33;20072;-78
2021/06/14 04:09:43;;;;;;;;;;;18.80;62.60;;;;;;4347095;32;20013;-78
2021/06/14 04:12:11;;;;;;;;;;;18.80;62.50;;;;;;4346825;33;20046;-78
2021/06/14 04:14:42;;;;;;;;;;;18.80;62.50;;;;;;4347033;33;20060;-78
2021/06/14 04:17:12;;;;;;;;;;;18.80;62.50;;;;;;4346310;33;39699;-78
2021/06/14 04:19:42;;;;;;;;;;;18.70;62.50;;;;;;4346892;33;20096;-79
2021/06/14 04:22:11;;;;;;;;;;;18.70;62.50;;;;;;4345524;32;43321;-78
2021/06/14 04:24:39;;;;;;;;;;;18.80;62.60;;;;;;4344480;33;43660;-79
2021/06/14 04:27:11;;;;;;;;;;;18.70;62.50;;;;;;4346955;33;20023;-78
2021/06/14 04:29:42;;;;;;;;;;;18.70;62.50;;;;;;4345670;33;19993;-78
2021/06/14 04:32:10;;;;;;;;;;;18.70;62.50;;;;;;4344785;33;43608;-78
2021/06/14 04:34:37;;;;;;;;;;;18.80;62.60;;;;;;4345702;32;43774;-78
2021/06/14 04:37:09;;;;;;;;;;;18.70;62.60;;;;;;4345701;33;20009;-78
2021/06/14 04:39:36;;;;;;;;;;;18.70;62.50;;;;;;4344900;33;42456;-79
2021/06/14 04:42:13;;;;;;;;;;;18.70;62.50;;;;;;4344212;33;36878;-79
2021/06/14 04:44:40;;;;;;;;;;;18.70;62.50;;;;;;4344015;33;45374;-79
2021/06/14 04:47:07;;;;;;;;;;;18.70;62.40;;;;;;4345622;33;19997;-79
2021/06/14 04:49:37;;;;;;;;;;;18.70;62.50;;;;;;4346924;33;20023;-79
2021/06/14 04:52:04;;;;;;;;;;;18.70;62.50;;;;;;4344304;33;39548;-78
2021/06/14 04:54:31;;;;;;;;;;;18.70;62.60;;;;;;4345319;33;44478;-79
2021/06/14 04:56:59;;;;;;;;;;;18.70;62.60;;;;;;4344953;33;21198;-78
2021/06/14 04:59:26;;;;;;;;;;;18.70;62.70;;;;;;4346043;32;28394;-79
2021/06/14 05:01:55;;;;;;;;;;;18.70;62.70;;;;;;4345894;33;20044;-78
2021/06/14 05:04:23;;;;;;;;;;;18.70;62.80;;;;;;4345335;33;38346;-79
2021/06/14 05:06:50;;;;;;;;;;;18.70;62.90;;;;;;4345421;33;40297;-77
2021/06/14 05:09:19;;;;;;;;;;;18.70;63.10;;;;;;4345320;33;20051;-77
2021/06/14 05:11:47;;;;;;;;;;;18.60;63.30;;;;;;4343860;33;43725;-77
2021/06/14 05:14:17;;;;;;;;;;;18.60;63.50;;;;;;4344796;33;20004;-77
2021/06/14 05:16:47;;;;;;;;;;;18.60;63.70;;;;;;4344392;33;27239;-77
2021/06/14 05:19:16;;;;;;;;;;;18.60;64.00;;;;;;4345574;33;43302;-78
2021/06/14 05:21:46;;;;;;;;;;;18.60;64.10;;;;;;4343980;33;43563;-78
2021/06/14 05:24:13;;;;;;;;;;;18.60;64.10;;;;;;4344367;33;44296;-78
2021/06/14 05:26:40;;;;;;;;;;;18.60;64.20;;;;;;4345308;33;41127;-77
2021/06/14 05:29:07;;;;;;;;;;;18.70;64.30;;;;;;4344774;33;41945;-77
2021/06/14 05:31:34;;;;;;;;;;;18.70;64.30;;;;;;4331554;33;43496;-77
2021/06/14 05:34:01;;;;;;;;;;;18.70;64.40;;;;;;4344654;33;31131;-77
2021/06/14 05:36:31;;;;;;;;;;;18.70;64.50;;;;;;4345257;33;43897;-77
2021/06/14 05:39:01;;;;;;;;;;;18.70;64.60;;;;;;4344202;33;43108;-77
2021/06/14 05:41:34;;;;;;;;;;;18.70;64.60;;;;;;4346446;33;20060;-77
2021/06/14 05:44:01;;;;;;;;;;;18.70;64.70;;;;;;4344379;33;44114;-77
2021/06/14 05:46:30;;;;;;;;;;;18.70;64.70;;;;;;4344322;33;37955;-77
2021/06/14 05:48:59;;;;;;;;;;;18.80;64.70;;;;;;4345382;33;41712;-78
2021/06/14 05:51:26;;;;;;;;;;;18.80;64.80;;;;;;4345301;33;36145;-77
2021/06/14 05:53:58;;;;;;;;;;;18.80;64.80;;;;;;4332222;33;37057;-78
2021/06/14 05:56:28;;;;;;;;;;;18.80;64.80;;;;;;4347963;33;32509;-78
2021/06/14 05:58:58;;;;;;;;;;;18.80;64.90;;;;;;4349058;33;20065;-78
2021/06/14 06:01:27;;;;;;;;;;;18.80;64.90;;;;;;4347846;32;37272;-78
2021/06/14 06:03:55;;;;;;;;;;;18.80;65.00;;;;;;4346748;33;38810;-79
2021/06/14 06:06:25;;;;;;;;;;;18.80;65.00;;;;;;4346513;33;32725;-79
2021/06/14 06:08:52;;;;;;;;;;;18.80;65.00;;;;;;4347702;32;44302;-80
2021/06/14 06:11:19;;;;;;;;;;;18.90;65.10;;;;;;4347951;32;44886;-79
2021/06/14 06:13:48;;;;;;;;;;;18.90;65.00;;;;;;4346341;33;41064;-79
2021/06/14 06:16:16;;;;;;;;;;;18.90;65.00;;;;;;4347693;33;44079;-79
2021/06/14 06:18:44;;;;;;;;;;;18.90;65.10;;;;;;4346115;33;43748;-79
2021/06/14 06:21:14;;;;;;;;;;;18.90;65.10;;;;;;4334052;33;36525;-79
2021/06/14 06:23:43;;;;;;;;;;;18.90;65.20;;;;;;4345962;33;45302;-79
2021/06/14 06:26:11;;;;;;;;;;;19.00;65.20;;;;;;4346197;33;44304;-79
2021/06/14 06:28:38;;;;;;;;;;;18.90;65.10;;;;;;4333986;33;44838;-79
2021/06/14 06:31:08;;;;;;;;;;;18.90;65.00;;;;;;4346389;33;44222;-79
2021/06/14 06:33:36;;;;;;;;;;;19.00;65.10;;;;;;4346331;33;43523;-79
2021/06/14 06:36:03;;;;;;;;;;;18.90;65.20;;;;;;4346465;33;32432;-79
2021/06/14 06:38:33;;;;;;;;;;;19.00;65.10;;;;;;4346915;32;43926;-79
2021/06/14 06:41:00;;;;;;;;;;;19.00;65.20;;;;;;4347192;33;40372;-79
2021/06/14 06:43:27;;;;;;;;;;;19.00;65.30;;;;;;4346110;33;40430;-78
2021/06/14 06:45:57;;;;;;;;;;;19.00;65.30;;;;;;4348051;33;20048;-79
2021/06/14 06:48:24;;;;;;;;;;;19.10;65.30;;;;;;4345571;33;42803;-77
2021/06/14 06:50:53;;;;;;;;;;;19.10;65.30;;;;;;4347075;33;20036;-78
2021/06/14 06:53:21;;;;;;;;;;;19.10;65.10;;;;;;4346246;33;42701;-79
2021/06/14 06:55:48;;;;;;;;;;;19.10;65.80;;;;;;4345994;33;40702;-79
2021/06/14 06:58:15;;;;;;;;;;;19.10;65.00;;;;;;4346128;33;35094;-79
2021/06/14 07:00:45;;;;;;;;;;;19.10;65.00;;;;;;4345786;33;37742;-79
2021/06/14 07:03:16;;;;;;;;;;;19.20;64.80;;;;;;4346590;33;45487;-79
2021/06/14 07:05:43;;;;;;;;;;;19.20;64.90;;;;;;4345521;33;44155;-79
2021/06/14 07:08:11;;;;;;;;;;;19.20;64.80;;;;;;4346903;32;44967;-79
2021/06/14 07:10:42;;;;;;;;;;;19.20;64.90;;;;;;4345389;33;44633;-81
2021/06/14 07:13:14;;;;;;;;;;;19.30;64.80;;;;;;4347016;32;43369;-80
2021/06/14 07:15:44;;;;;;;;;;;19.30;64.90;;;;;;4345827;33;35694;-80
2021/06/14 07:18:11;;;;;;;;;;;19.30;64.90;;;;;;4345293;33;43827;-80
2021/06/14 07:20:59;;;;;;;;;;;19.40;65.00;;;;;;4346573;33;20013;-79
2021/06/14 07:23:26;;;;;;;;;;;19.40;64.90;;;;;;4347531;33;20019;-81
2021/06/14 07:25:53;;;;;;;;;;;19.40;64.90;;;;;;4346355;33;20005;-79
2021/06/14 07:28:21;;;;;;;;;;;19.50;64.80;;;;;;4334519;33;20021;-78
2021/06/14 07:30:51;;;;;;;;;;;19.50;64.60;;;;;;4334289;33;20016;-80
2021/06/14 07:33:18;;;;;;;;;;;19.50;64.70;;;;;;4346541;33;20077;-80
2021/06/14 07:35:45;;;;;;;;;;;19.50;64.60;;;;;;4345844;33;20071;-79
2021/06/14 07:38:14;;;;;;;;;;;19.60;64.60;;;;;;4346504;33;20515;-79
2021/06/14 07:40:48;;;;;;;;;;;19.60;64.70;;;;;;4345170;33;20013;-79
2021/06/14 07:43:16;;;;;;;;;;;19.60;64.70;;;;;;4346520;33;20005;-79
2021/06/14 07:45:45;;;;;;;;;;;19.70;64.70;;;;;;4346165;33;20032;-79
2021/06/14 07:48:12;;;;;;;;;;;19.70;64.60;;;;;;4345723;33;20076;-79
2021/06/14 07:50:46;;;;;;;;;;;19.70;64.60;;;;;;4346228;33;20023;-80
2021/06/14 07:53:18;;;;;;;;;;;19.70;64.60;;;;;;4346105;33;19993;-79
2021/06/14 07:55:49;;;;;;;;;;;19.80;64.70;;;;;;4347179;32;20575;-79
2021/06/14 07:58:16;;;;;;;;;;;19.70;64.50;;;;;;4346486;33;20043;-80
2021/06/14 08:00:43;;;;;;;;;;;19.80;64.50;;;;;;4346265;33;20032;-80
2021/06/14 08:03:13;;;;;;;;;;;19.80;64.60;;;;;;4345555;33;20359;-80
2021/06/14 08:05:41;;;;;;;;;;;19.80;64.70;;;;;;4347122;32;20005;-79
2021/06/14 08:08:12;;;;;;;;;;;19.90;64.70;;;;;;4346580;33;20435;-79
2021/06/14 08:10:41;;;;;;;;;;;19.90;64.70;;;;;;4345814;33;20009;-79
2021/06/14 08:13:08;;;;;;;;;;;19.90;64.50;;;;;;4345785;33;20048;-78
2021/06/14 08:15:39;;;;;;;;;;;19.90;64.50;;;;;;4345651;33;20440;-79
2021/06/14 08:18:28;;;;;;;;;;;20.00;64.40;;;;;;4345404;33;20358;-79
2021/06/14 08:26:25;;;;;;;;;;;20.00;64.50;;;;;;4346790;33;20024;-78
2021/06/14 08:29:00;;;;;;;;;;;20.10;64.60;;;;;;4345760;33;20007;-79
2021/06/14 08:31:31;;;;;;;;;;;20.10;64.60;;;;;;4345418;33;20222;-79
2021/06/14 08:34:01;;;;;;;;;;;20.10;64.50;;;;;;4345894;33;20023;-78
2021/06/14 08:36:34;;;;;;;;;;;20.10;64.50;;;;;;4347046;33;20017;-79
2021/06/14 08:39:07;;;;;;;;;;;20.20;64.60;;;;;;4333365;33;20039;-80
2021/06/14 08:41:35;;;;;;;;;;;20.20;64.50;;;;;;4345586;33;20021;-79
2021/06/14 08:44:05;;;;;;;;;;;20.20;64.10;;;;;;4346250;32;20015;-79
2021/06/14 08:46:34;;;;;;;;;;;20.30;64.30;;;;;;4345796;33;20019;-78
2021/06/14 08:49:05;;;;;;;;;;;20.30;64.30;;;;;;4345348;33;20035;-79
2021/06/14 08:51:35;;;;;;;;;;;20.30;64.30;;;;;;4345761;33;20107;-78
2021/06/14 08:54:05;;;;;;;;;;;20.30;64.30;;;;;;4344850;33;20010;-78
2021/06/14 08:56:38;;;;;;;;;;;20.40;64.20;;;;;;4346042;33;20358;-78
2021/06/14 08:59:08;;;;;;;;;;;20.40;64.00;;;;;;4346810;33;20001;-80
2021/06/14 09:01:37;;;;;;;;;;;20.50;64.10;;;;;;4345218;33;20027;-79
2021/06/14 09:04:05;;;;;;;;;;;20.50;63.90;;;;;;4346233;33;20021;-79
2021/06/14 09:06:32;;;;;;;;;;;20.50;64.00;;;;;;4345475;33;20017;-79
2021/06/14 09:09:00;;;;;;;;;;;20.50;63.90;;;;;;4346176;33;20043;-79
2021/06/14 09:11:28;;;;;;;;;;;20.50;63.90;;;;;;4345065;33;20402;-80
2021/06/14 09:13:59;;;;;;;;;;;20.50;64.00;;;;;;4345074;33;20023;-79
2021/06/14 09:16:31;;;;;;;;;;;20.50;64.10;;;;;;4345122;33;21551;-79
2021/06/14 09:19:01;;;;;;;;;;;20.60;64.10;;;;;;4346662;33;20009;-79
2021/06/14 09:21:32;;;;;;;;;;;20.60;64.00;;;;;;4345782;33;20001;-79
2021/06/14 09:24:06;;;;;;;;;;;20.60;63.60;;;;;;4345091;33;20394;-78
2021/06/14 09:26:43;;;;;;;;;;;20.60;63.70;;;;;;4346597;33;20440;-79
2021/06/14 09:29:11;;;;;;;;;;;20.60;63.50;;;;;;4347343;33;20013;-78
2021/06/14 09:31:40;;;;;;;;;;;20.60;63.50;;;;;;4348121;33;22223;-79
2021/06/14 09:34:12;;;;;;;;;;;20.60;63.70;;;;;;4348425;33;20015;-78
2021/06/14 09:36:46;;;;;;;;;;;20.60;63.40;;;;;;4348300;33;20025;-78
2021/06/14 09:39:19;;;;;;;;;;;20.60;63.40;;;;;;4348111;33;20069;-78
2021/06/14 09:41:52;;;;;;;;;;;20.60;63.30;;;;;;4348104;33;19994;-78
2021/06/14 09:44:27;;;;;;;;;;;20.70;63.40;;;;;;4349381;33;20009;-78
2021/06/14 09:47:01;;;;;;;;;;;20.60;63.20;;;;;;4347259;33;44651;-76
2021/06/14 09:49:33;;;;;;;;;;;20.70;63.40;;;;;;4347740;33;20005;-77
2021/06/14 09:52:02;;;;;;;;;;;20.70;63.20;;;;;;4349262;33;20080;-77
2021/06/14 09:54:38;;;;;;;;;;;20.70;63.20;;;;;;4347481;33;24037;-77
2021/06/14 09:57:07;;;;;;;;;;;20.70;63.20;;;;;;4348838;33;22143;-78
2021/06/14 09:59:44;;;;;;;;;;;20.70;63.30;;;;;;4347597;33;24330;-77
2021/06/14 10:02:19;;;;;;;;;;;20.70;63.40;;;;;;4349110;32;20018;-76
2021/06/14 10:04:54;;;;;;;;;;;20.70;63.20;;;;;;4348922;33;20012;-76
2021/06/14 10:07:24;;;;;;;;;;;20.70;63.20;;;;;;4348543;33;22876;-78
2021/06/14 10:09:52;;;;;;;;;;;20.80;63.10;;;;;;4347165;33;26185;-77
2021/06/14 10:12:24;;;;;;;;;;;20.80;63.00;;;;;;4347977;33;20587;-76
2021/06/14 10:14:57;;;;;;;;;;;20.80;63.00;;;;;;4346633;33;38213;-76
2021/06/14 10:17:33;;;;;;;;;;;20.80;62.90;;;;;;4346218;33;41171;-75
2021/06/14 10:20:36;;;;;;;;;;;20.80;63.10;;;;;;4346533;33;41621;-75
2021/06/14 10:23:04;;;;;;;;;;;20.90;63.00;;;;;;4332085;33;20086;-76
2021/06/14 10:25:35;;;;;;;;;;;20.90;63.00;;;;;;4347720;33;20015;-75
2021/06/14 10:28:07;;;;;;;;;;;20.90;63.00;;;;;;4349231;33;20110;-75
2021/06/14 10:30:35;;;;;;;;;;;20.90;63.10;;;;;;4348775;32;20010;-75
2021/06/14 10:33:03;;;;;;;;;;;20.90;63.10;;;;;;4348479;32;20044;-76
2021/06/14 10:35:37;;;;;;;;;;;20.90;63.10;;;;;;4348697;32;20023;-75
2021/06/14 10:38:05;;;;;;;;;;;20.90;63.10;;;;;;4346865;33;20001;-75
2021/06/14 10:40:39;;;;;;;;;;;20.90;63.10;;;;;;4347233;33;20021;-75
2021/06/14 10:43:06;;;;;;;;;;;20.90;63.20;;;;;;4348397;33;20021;-75
2021/06/14 10:45:39;;;;;;;;;;;20.90;63.20;;;;;;4335491;33;19994;-75
2021/06/14 10:48:10;;;;;;;;;;;20.90;63.30;;;;;;4348213;33;20019;-75
2021/06/14 10:51:02;;;;;;;;;;;21.00;63.40;;;;;;4347662;33;20067;-75
2021/06/14 10:53:33;;;;;;;;;;;20.90;63.30;;;;;;4347610;33;20012;-75
2021/06/14 10:56:04;;;;;;;;;;;21.00;63.40;;;;;;4346645;33;20015;-75
2021/06/14 10:58:31;;;;;;;;;;;21.00;63.40;;;;;;4347953;33;20013;-75
2021/06/14 11:01:05;;;;;;;;;;;21.10;63.40;;;;;;4347099;33;20023;-76
2021/06/14 11:03:46;;;;;;;;;;;21.10;63.40;;;;;;4347526;32;20022;-75
2021/06/14 11:06:14;;;;;;;;;;;21.10;63.40;;;;;;4346743;33;20019;-75
2021/06/14 11:08:47;;;;;;;;;;;21.10;63.40;;;;;;4347514;33;20014;-75
2021/06/14 11:11:14;;;;;;;;;;;21.20;63.50;;;;;;4346808;33;20017;-76
2021/06/14 11:13:50;;;;;;;;;;;21.20;63.40;;;;;;4348120;33;20008;-76
2021/06/14 11:16:21;;;;;;;;;;;21.20;63.40;;;;;;4346506;33;20036;-76
2021/06/14 11:18:51;;;;;;;;;;;21.30;63.40;;;;;;4348201;32;20057;-76
2021/06/14 11:21:23;;;;;;;;;;;21.30;63.40;;;;;;4346101;33;20010;-76
2021/06/14 11:23:51;;;;;;;;;;;21.30;63.40;;;;;;4347128;33;20019;-76
2021/06/14 11:26:28;;;;;;;;;;;21.40;63.10;;;;;;4346713;33;19997;-77
2021/06/14 11:29:09;;;;;;;;;;;21.40;63.30;;;;;;4347370;33;20021;-76
2021/06/14 11:31:42;;;;;;;;;;;21.50;63.20;;;;;;4346288;33;20008;-76
2021/06/14 11:34:19;;;;;;;;;;;21.50;63.10;;;;;;4347641;33;20411;-77
2021/06/14 11:36:55;;;;;;;;;;;21.50;63.10;;;;;;4347577;33;20001;-77
2021/06/14 11:39:23;;;;;;;;;;;21.60;63.10;;;;;;4346377;33;22504;-77
2021/06/14 11:41:52;;;;;;;;;;;21.60;63.10;;;;;;4347617;32;20311;-77
2021/06/14 11:44:23;;;;;;;;;;;21.60;63.00;;;;;;4347266;33;20017;-77
2021/06/14 11:46:57;;;;;;;;;;;21.60;63.00;;;;;;4347786;32;20020;-77
2021/06/14 11:49:34;;;;;;;;;;;21.70;63.10;;;;;;4347309;33;20402;-78
2021/06/14 11:52:15;;;;;;;;;;;21.70;62.90;;;;;;4346621;33;20009;-78
2021/06/14 11:54:48;;;;;;;;;;;21.70;63.00;;;;;;4346835;33;26125;-77
2021/06/14 11:57:17;;;;;;;;;;;21.80;62.80;;;;;;4332986;33;45407;-77
2021/06/14 11:59:50;;;;;;;;;;;21.80;62.80;;;;;;4346333;33;39004;-76
2021/06/14 12:02:19;;;;;;;;;;;21.90;62.90;;;;;;4346176;33;31672;-78
2021/06/14 12:04:50;;;;;;;;;;;21.90;62.90;;;;;;4347455;33;20057;-77
2021/06/14 12:07:26;;;;;;;;;;;21.90;62.90;;;;;;4345464;33;33390;-76
2021/06/14 12:10:04;;;;;;;;;;;22.00;62.60;;;;;;4345082;33;41375;-77
2021/06/14 12:12:37;;;;;;;;;;;22.00;62.80;;;;;;4332470;33;41528;-78
2021/06/14 12:15:09;;;;;;;;;;;22.00;62.70;;;;;;4345833;33;43341;-77
2021/06/14 12:17:42;;;;;;;;;;;22.10;62.80;;;;;;4344802;33;45337;-78
2021/06/14 12:20:13;;;;;;;;;;;22.10;62.80;;;;;;4346274;33;30479;-76
2021/06/14 12:22:40;;;;;;;;;;;22.10;62.70;;;;;;4344953;33;41517;-78
2021/06/14 12:25:15;;;;;;;;;;;22.10;62.80;;;;;;4344807;33;30291;-76
2021/06/14 12:27:42;;;;;;;;;;;22.20;62.90;;;;;;4347366;32;20043;-76
2021/06/14 12:30:13;;;;;;;;;;;22.20;62.90;;;;;;4344873;33;37747;-77
2021/06/14 12:32:46;;;;;;;;;;;22.20;63.00;;;;;;4346117;33;36828;-77
2021/06/14 12:35:14;;;;;;;;;;;22.20;63.00;;;;;;4345859;33;41383;-77
2021/06/14 12:37:44;;;;;;;;;;;22.20;63.00;;;;;;4344893;33;28441;-77
2021/06/14 12:40:14;;;;;;;;;;;22.30;62.80;;;;;;4346725;32;20005;-78
2021/06/14 12:42:42;;;;;;;;;;;22.30;62.80;;;;;;4345525;33;42766;-77
2021/06/14 12:45:11;;;;;;;;;;;22.40;62.90;;;;;;4345868;33;44130;-78
2021/06/14 12:47:42;;;;;;;;;;;22.40;62.90;;;;;;4345665;33;43667;-78
2021/06/14 12:50:12;;;;;;;;;;;22.40;63.00;;;;;;4344473;33;44453;-77
2021/06/14 12:52:40;;;;;;;;;;;22.40;62.90;;;;;;4345465;33;44392;-77
2021/06/14 12:55:15;;;;;;;;;;;22.50;63.00;;;;;;4341454;33;44665;-77
2021/06/14 12:57:43;;;;;;;;;;;22.50;63.00;;;;;;4342243;33;40292;-78
2021/06/14 13:00:12;;;;;;;;;;;22.50;63.00;;;;;;4343164;33;41340;-77
2021/06/14 13:02:41;;;;;;;;;;;22.50;62.90;;;;;;4345064;33;21189;-77
2021/06/14 13:05:16;;;;;;;;;;;22.60;62.50;;;;;;4332075;33;32814;-84
2021/06/14 13:07:52;;;;;;;;;;;22.70;62.80;;;;;;4331322;33;43907;-80
2021/06/14 13:10:21;;;;;;;;;;;22.70;62.80;;;;;;4344702;33;44467;-79
2021/06/14 13:12:53;;;;;;;;;;;22.80;62.80;;;;;;4345088;33;43667;-80
2021/06/14 13:15:20;;;;;;;;;;;22.80;62.60;;;;;;4331513;33;45462;-80
2021/06/14 13:17:51;;;;;;;;;;;22.80;62.70;;;;;;4331935;33;44443;-79
2021/06/14 13:20:23;;;;;;;;;;;22.90;62.70;;;;;;4346624;33;20021;-80
2021/06/14 13:22:52;;;;;;;;;;;22.90;62.70;;;;;;4346087;33;21417;-79
2021/06/14 13:25:23;;;;;;;;;;;23.00;62.80;;;;;;4332758;33;20005;-80
2021/06/14 13:27:54;;;;;;;;;;;23.00;62.70;;;;;;4320391;33;20005;-80
2021/06/14 13:30:24;;;;;;;;;;;23.00;62.80;;;;;;4332085;33;40842;-80
2021/06/14 13:33:03;;;;;;;;;;;23.00;62.80;;;;;;4331571;33;42848;-81
2021/06/14 13:35:31;;;;;;;;;;;23.10;62.50;;;;;;4332292;33;43182;-80
2021/06/14 13:38:01;;;;;;;;;;;23.10;62.70;;;;;;4356172;33;40958;-80
2021/06/14 13:40:31;;;;;;;;;;;23.10;62.80;;;;;;4345991;33;20021;-80
2021/06/14 13:42:59;;;;;;;;;;;23.20;62.70;;;;;;4332583;33;20001;-80
2021/06/14 13:45:34;;;;;;;;;;;23.20;62.70;;;;;;4346404;33;20013;-79
2021/06/14 13:48:03;;;;;;;;;;;23.30;62.70;;;;;;4332860;33;20013;-80
2021/06/14 13:50:33;;;;;;;;;;;23.30;62.60;;;;;;4345015;33;44625;-80
2021/06/14 13:53:11;;;;;;;;;;;23.30;62.30;;;;;;4345907;33;20009;-80
2021/06/14 13:55:59;;;;;;;;;;;23.40;62.60;;;;;;4345348;33;20651;-79
2021/06/14 13:58:33;;;;;;;;;;;23.40;62.60;;;;;;4331597;33;45292;-80
2021/06/14 14:01:05;;;;;;;;;;;23.50;62.40;;;;;;4331684;33;45318;-80
2021/06/14 14:03:35;;;;;;;;;;;23.50;62.40;;;;;;4344501;33;42911;-80
2021/06/14 14:06:03;;;;;;;;;;;23.60;62.50;;;;;;4346347;33;20013;-80
2021/06/14 14:08:34;;;;;;;;;;;23.60;62.40;;;;;;4332323;33;20031;-80
2021/06/14 14:11:07;;;;;;;;;;;23.70;62.30;;;;;;4332754;33;30431;-81
2021/06/14 14:13:36;;;;;;;;;;;23.70;62.30;;;;;;4331745;33;44312;-79
2021/06/14 14:16:04;;;;;;;;;;;23.70;62.20;;;;;;4332411;33;42880;-80
2021/06/14 14:18:31;;;;;;;;;;;23.80;62.20;;;;;;4347199;33;44704;-81
2021/06/14 14:20:58;;;;;;;;;;;23.80;61.80;;;;;;4347712;33;38763;-80
2021/06/14 14:23:28;;;;;;;;;;;23.90;62.30;;;;;;4348819;33;20013;-80
2021/06/14 14:26:00;;;;;;;;;;;23.90;62.20;;;;;;4334865;33;20016;-80
2021/06/14 14:28:27;;;;;;;;;;;23.90;62.20;;;;;;4348875;33;20418;-80
2021/06/14 14:30:58;;;;;;;;;;;23.90;62.10;;;;;;4348032;33;20004;-80
2021/06/14 14:33:25;;;;;;;;;;;23.90;62.10;;;;;;4322928;33;20005;-80
2021/06/14 14:36:05;;;;;;;;;;;23.90;62.10;;;;;;4347578;33;22511;-80
2021/06/14 14:38:36;;;;;;;;;;;24.00;62.30;;;;;;4335497;33;20017;-80
2021/06/14 14:41:10;;;;;;;;;;;24.00;62.20;;;;;;4348533;33;20415;-80
2021/06/14 14:43:41;;;;;;;;;;;24.00;62.20;;;;;;4334860;33;19997;-81